Capitol Logistics 454


KRIV
March Air Reserve Base
Riverside, California, US
KPDX
Portland International Airport
Portland, Oregon, US

Activity Log

Date Flight Route Aircraft Duration
01/22/2020 CPX454 N0450F400 SKYES4 OCN J1 LAX GMN LMT OCITY2 B738 2h 31m
01/04/2020 CPX454 SOPEA1 OCN J1 LAX J88 SNS SPNSR TMBRS2 B738 2h 08m
07/02/2019 CPX454 SOPEA1 OCN J1 LAX J88 SNS SPNSR TMBRS2 B738 2h 16m

Route Details

Aircraft Information
Primary: Boeing 737-800BCF
Backup: Not Available
Route Data
Distance: 743nm
Sched. Duration: 2h 14m
Avg. Duration: 2h 18m (+4m)
Times Flown: 3
Recm'd Route: SOPEA1 OCN J1 LAX J88 SNS SPNSR TMBRS2
Planned Altitude: 38,000ft
Origin Wx: KRIV 280958Z AUTO 16003KT 10SM CLR 15/M05 A3015 RMK AO2 SLP201 T01461052
Dest. Wx: KPDX 280953Z 00000KT 10SM CLR 04/02 A3021 RMK AO2 SLP229 T00390022
Notes:

Financial History
Total Freight: 80,256lbs
Average Load: 26,752lbs/flt
Fuel Used: 34,262lbs
Avg. Fuel Used: 11,421lbs/flt
Fuel Expense: $23,641
Avg. Fuel Expense: $7,880
Avg. Fuel Cost: $0.69/lbs
Total Gross Income: $108,171
Pilot Pay: $717
Total Expenses: $11,839
Total Revenue: $71,080
Average Revenue: $36,057.12